Terminal Aerodrome Forecast
Issued by NWS

Current Version | Previous Version | Graphics & Text | Print | Product List | Glossary On
Versions: 1 2 3 4 5 6 7 8 9 10 11 12 13 14 15 16 17 18 19 20 21
000
FTUS41 KILN 220500
TAFLUK
TAF
KLUK 220537Z 2206/2306 00000KT 5SM BR FEW060
     FM220800 00000KT 2SM BR SCT060
     FM220900 00000KT 1/2SM FG VV002
     FM221300 20005KT P6SM SCT040
     FM230000 VRB03KT P6SM SCT250=

USA.gov is the U.S. government's official web portal to all federal, state and local government web resources and services.